Time,TemperatureF,DewpointF,PressureIn,WindDirection,WindDirectionDegrees,WindSpeedMPH,WindSpeedGustMPH,Humidity,HourlyPrecipIn,Conditions,Clouds,dailyrainin,SoftwareType,DateUTC
2013-06-01 00:00:00,71.1,63.9,29.89,South,188,0.0,0.0,78,0.00,,,0.00,Wunderground v.1.15,2013-06-01 04:00:00,
2013-06-01 00:01:00,71.1,63.9,29.89,South,188,1.0,1.0,78,0.00,,,0.00,Wunderground v.1.15,2013-06-01 04:01:00,
2013-06-01 00:02:00,71.1,63.9,29.89,South,188,0.0,1.0,78,0.00,,,0.00,Wunderground v.1.15,2013-06-01 04:02:00,
2013-06-01 00:04:00,70.9,63.7,29.89,South,188,0.0,1.0,78,0.00,,,0.00,Wunderground v.1.15,2013-06-01 04:04:00,
2013-06-01 00:06:00,70.8,63.6,29.89,South,188,0.0,1.0,78,0.00,,,0.00,Wunderground v.1.15,2013-06-01 04:06:00,
2013-06-01 00:12:00,70.4,63.6,29.89,South,188,0.0,0.0,79,0.00,,,0.00,Wunderground v.1.15,2013-06-01 04:12:00,
2013-06-01 00:17:00,70.3,63.5,29.89,South,188,0.0,0.0,79,0.00,,,0.00,Wunderground v.1.15,2013-06-01 04:17:00,
2013-06-01 00:23:00,70.4,63.6,29.89,South,188,0.0,0.0,79,0.00,,,0.00,Wunderground v.1.15,2013-06-01 04:23:00,
2013-06-01 00:28:00,70.9,63.7,29.89,South,188,0.0,0.0,78,0.00,,,0.00,Wunderground v.1.15,2013-06-01 04:28:00,
2013-06-01 00:34:00,70.9,63.7,29.89,South,188,0.0,0.0,78,0.00,,,0.00,Wunderground v.1.15,2013-06-01 04:34:00,
2013-06-01 00:40:00,70.8,64.0,29.89,South,188,0.0,0.0,79,0.00,,,0.00,Wunderground v.1.15,2013-06-01 04:40:00,
2013-06-01 00:45:00,70.6,63.8,29.89,South,188,0.0,0.0,79,0.00,,,0.00,Wunderground v.1.15,2013-06-01 04:45:00,
2013-06-01 00:51:00,70.3,63.5,29.89,South,188,0.0,0.0,79,0.00,,,0.00,Wunderground v.1.15,2013-06-01 04:51:00,
2013-06-01 00:57:00,70.1,63.6,29.88,South,188,0.0,1.0,80,0.00,,,0.00,Wunderground v.1.15,2013-06-01 04:57:00,
2013-06-01 01:02:00,70.3,63.8,29.88,South,188,0.0,0.0,80,0.00,,,0.00,Wunderground v.1.15,2013-06-01 05:02:00,
2013-06-01 01:08:00,69.9,63.8,29.88,South,188,0.0,0.0,81,0.00,,,0.00,Wunderground v.1.15,2013-06-01 05:08:00,
2013-06-01 01:13:00,69.6,63.9,29.89,South,188,0.0,0.0,82,0.00,,,0.00,Wunderground v.1.15,2013-06-01 05:13:00,
2013-06-01 01:18:00,69.4,63.7,29.89,South,188,0.0,0.0,82,0.00,,,0.00,Wunderground v.1.15,2013-06-01 05:18:00,
2013-06-01 01:24:00,68.9,63.9,29.89,South,188,0.0,0.0,84,0.00,,,0.00,Wunderground v.1.15,2013-06-01 05:24:00,
2013-06-01 01:29:00,68.9,64.2,29.88,South,188,0.0,1.0,85,0.00,,,0.00,Wunderground v.1.15,2013-06-01 05:29:00,
2013-06-01 01:35:00,68.6,63.9,29.88,South,188,0.0,0.0,85,0.00,,,0.00,Wunderground v.1.15,2013-06-01 05:35:00,
2013-06-01 01:40:00,68.4,64.0,29.88,South,188,0.0,0.0,86,0.00,,,0.00,Wunderground v.1.15,2013-06-01 05:40:00,
2013-06-01 01:45:00,68.3,63.9,29.88,South,188,0.0,0.0,86,0.00,,,0.00,Wunderground v.1.15,2013-06-01 05:45:00,
2013-06-01 01:51:00,68.1,63.8,29.88,South,188,0.0,0.0,86,0.00,,,0.00,Wunderground v.1.15,2013-06-01 05:51:00,
2013-06-01 01:56:00,67.8,63.8,29.88,South,188,0.0,0.0,87,0.00,,,0.00,Wunderground v.1.15,2013-06-01 05:56:00,
2013-06-01 02:01:00,67.6,63.6,29.88,South,188,0.0,0.0,87,0.00,,,0.00,Wunderground v.1.15,2013-06-01 06:01:00,
2013-06-01 02:06:00,67.6,63.9,29.88,South,188,0.0,0.0,88,0.00,,,0.00,Wunderground v.1.15,2013-06-01 06:06:00,
2013-06-01 02:11:00,67.6,63.9,29.88,South,188,0.0,0.0,88,0.00,,,0.00,Wunderground v.1.15,2013-06-01 06:11:00,
2013-06-01 02:16:00,67.6,64.2,29.88,South,188,0.0,0.0,89,0.00,,,0.00,Wunderground v.1.15,2013-06-01 06:16:00,
2013-06-01 02:21:00,67.8,64.4,29.88,South,188,0.0,0.0,89,0.00,,,0.00,Wunderground v.1.15,2013-06-01 06:21:00,
2013-06-01 02:26:00,67.8,64.1,29.88,South,188,0.0,0.0,88,0.00,,,0.00,Wunderground v.1.15,2013-06-01 06:26:00,
2013-06-01 02:31:00,67.6,64.2,29.88,South,188,0.0,0.0,89,0.00,,,0.00,Wunderground v.1.15,2013-06-01 06:31:00,
2013-06-01 02:36:00,67.6,64.2,29.88,South,188,0.0,0.0,89,0.00,,,0.00,Wunderground v.1.15,2013-06-01 06:36:00,
2013-06-01 02:41:00,67.4,64.0,29.88,South,188,0.0,0.0,89,0.00,,,0.00,Wunderground v.1.15,2013-06-01 06:41:00,
2013-06-01 02:46:00,67.4,64.0,29.88,South,188,0.0,0.0,89,0.00,,,0.00,Wunderground v.1.15,2013-06-01 06:46:00,
2013-06-01 02:51:00,67.6,64.6,29.88,South,188,0.0,0.0,90,0.00,,,0.00,Wunderground v.1.15,2013-06-01 06:51:00,
2013-06-01 02:56:00,67.8,64.8,29.88,South,188,0.0,0.0,90,0.00,,,0.00,Wunderground v.1.15,2013-06-01 06:56:00,
2013-06-01 03:01:00,66.9,63.2,29.88,South,188,0.0,0.0,88,0.00,,,0.00,Wunderground v.1.15,2013-06-01 07:01:00,
2013-06-01 03:06:00,66.4,63.4,29.88,South,188,0.0,1.0,90,0.00,,,0.00,Wunderground v.1.15,2013-06-01 07:06:00,
2013-06-01 03:11:00,66.3,63.6,29.88,South,188,0.0,0.0,91,0.00,,,0.00,Wunderground v.1.15,2013-06-01 07:11:00,
2013-06-01 03:16:00,66.4,64.0,29.89,South,188,0.0,0.0,92,0.00,,,0.00,Wunderground v.1.15,2013-06-01 07:16:00,
2013-06-01 03:21:00,66.4,64.0,29.89,South,188,0.0,1.0,92,0.00,,,0.00,Wunderground v.1.15,2013-06-01 07:21:00,
2013-06-01 03:26:00,66.4,64.0,29.89,South,188,0.0,1.0,92,0.00,,,0.00,Wunderground v.1.15,2013-06-01 07:26:00,
2013-06-01 03:31:00,66.6,64.2,29.88,South,188,0.0,0.0,92,0.00,,,0.00,Wunderground v.1.15,2013-06-01 07:31:00,
2013-06-01 03:36:00,66.4,64.0,29.88,South,188,0.0,0.0,92,0.00,,,0.00,Wunderground v.1.15,2013-06-01 07:36:00,
2013-06-01 03:41:00,66.3,64.2,29.88,South,188,0.0,0.0,93,0.00,,,0.00,Wunderground v.1.15,2013-06-01 07:41:00,
2013-06-01 03:47:00,66.1,64.0,29.88,South,188,0.0,0.0,93,0.00,,,0.00,Wunderground v.1.15,2013-06-01 07:47:00,
2013-06-01 03:52:00,66.0,63.9,29.88,South,188,0.0,0.0,93,0.00,,,0.00,Wunderground v.1.15,2013-06-01 07:52:00,
2013-06-01 03:57:00,66.0,63.9,29.89,South,188,0.0,0.0,93,0.00,,,0.00,Wunderground v.1.15,2013-06-01 07:57:00,
2013-06-01 04:02:00,66.0,63.9,29.89,South,188,0.0,0.0,93,0.00,,,0.00,Wunderground v.1.15,2013-06-01 08:02:00,
2013-06-01 04:07:00,65.8,63.7,29.89,South,188,0.0,0.0,93,0.00,,,0.00,Wunderground v.1.15,2013-06-01 08:07:00,
2013-06-01 04:12:00,65.8,63.7,29.89,South,188,0.0,0.0,93,0.00,,,0.00,Wunderground v.1.15,2013-06-01 08:12:00,
2013-06-01 04:17:00,66.0,64.2,29.89,South,188,0.0,1.0,94,0.00,,,0.00,Wunderground v.1.15,2013-06-01 08:17:00,
2013-06-01 04:22:00,66.0,63.9,29.89,South,188,0.0,0.0,93,0.00,,,0.00,Wunderground v.1.15,2013-06-01 08:22:00,
2013-06-01 04:27:00,65.8,63.7,29.88,South,188,0.0,0.0,93,0.00,,,0.00,Wunderground v.1.15,2013-06-01 08:27:00,
2013-06-01 04:32:00,65.8,63.7,29.88,South,188,0.0,0.0,93,0.00,,,0.00,Wunderground v.1.15,2013-06-01 08:32:00,
2013-06-01 04:37:00,65.5,63.4,29.88,South,188,0.0,0.0,93,0.00,,,0.00,Wunderground v.1.15,2013-06-01 08:37:00,
2013-06-01 04:42:00,65.2,63.1,29.89,South,188,0.0,0.0,93,0.00,,,0.00,Wunderground v.1.15,2013-06-01 08:42:00,
2013-06-01 04:47:00,65.0,63.2,29.89,South,188,0.0,2.0,94,0.00,,,0.00,Wunderground v.1.15,2013-06-01 08:47:00,
2013-06-01 04:52:00,64.8,63.0,29.89,South,188,0.0,0.0,94,0.00,,,0.00,Wunderground v.1.15,2013-06-01 08:52:00,
2013-06-01 04:57:00,65.0,63.2,29.89,South,188,0.0,1.0,94,0.00,,,0.00,Wunderground v.1.15,2013-06-01 08:57:00,
2013-06-01 05:02:00,65.3,63.8,29.89,South,188,0.0,0.0,95,0.00,,,0.00,Wunderground v.1.15,2013-06-01 09:02:00,
2013-06-01 05:07:00,65.0,63.2,29.89,South,188,0.0,0.0,94,0.00,,,0.00,Wunderground v.1.15,2013-06-01 09:07:00,
2013-06-01 05:12:00,64.5,63.0,29.89,South,188,0.0,0.0,95,0.00,,,0.00,Wunderground v.1.15,2013-06-01 09:12:00,
2013-06-01 05:17:00,64.7,63.2,29.89,South,188,0.0,2.0,95,0.00,,,0.00,Wunderground v.1.15,2013-06-01 09:17:00,
2013-06-01 05:22:00,65.2,63.7,29.89,South,188,0.0,0.0,95,0.00,,,0.00,Wunderground v.1.15,2013-06-01 09:22:00,
2013-06-01 05:27:00,65.3,63.8,29.89,South,188,0.0,0.0,95,0.00,,,0.00,Wunderground v.1.15,2013-06-01 09:27:00,
2013-06-01 05:32:00,64.8,63.0,29.89,South,188,0.0,1.0,94,0.00,,,0.00,Wunderground v.1.15,2013-06-01 09:32:00,
2013-06-01 05:37:00,64.3,62.8,29.89,South,188,0.0,1.0,95,0.00,,,0.00,Wunderground v.1.15,2013-06-01 09:37:00,
2013-06-01 05:42:00,64.5,63.0,29.90,South,188,0.0,1.0,95,0.00,,,0.00,Wunderground v.1.15,2013-06-01 09:42:00,
2013-06-01 05:47:00,64.7,63.2,29.90,South,188,0.0,1.0,95,0.00,,,0.00,Wunderground v.1.15,2013-06-01 09:47:00,
2013-06-01 05:52:00,64.8,63.3,29.90,South,188,0.0,0.0,95,0.00,,,0.00,Wunderground v.1.15,2013-06-01 09:52:00,
2013-06-01 05:57:00,64.5,63.0,29.90,South,188,0.0,0.0,95,0.00,,,0.00,Wunderground v.1.15,2013-06-01 09:57:00,
2013-06-01 06:02:00,64.5,63.0,29.90,South,188,0.0,0.0,95,0.00,,,0.00,Wunderground v.1.15,2013-06-01 10:02:00,
2013-06-01 06:07:00,64.7,63.2,29.90,South,188,0.0,0.0,95,0.00,,,0.00,Wunderground v.1.15,2013-06-01 10:07:00,
2013-06-01 06:12:00,65.2,64.0,29.90,South,188,0.0,0.0,96,0.00,,,0.00,Wunderground v.1.15,2013-06-01 10:12:00,
2013-06-01 06:17:00,65.6,64.4,29.90,South,188,0.0,1.0,96,0.00,,,0.00,Wunderground v.1.15,2013-06-01 10:17:00,
2013-06-01 06:22:00,65.8,64.3,29.90,South,188,0.0,0.0,95,0.00,,,0.00,Wunderground v.1.15,2013-06-01 10:22:00,
2013-06-01 06:27:00,66.3,64.8,29.90,South,188,0.0,1.0,95,0.00,,,0.00,Wunderground v.1.15,2013-06-01 10:27:00,
2013-06-01 06:33:00,67.1,65.6,29.90,South,188,0.0,1.0,95,0.00,,,0.00,Wunderground v.1.15,2013-06-01 10:33:00,
2013-06-01 06:38:00,67.8,66.0,29.90,South,188,0.0,1.0,94,0.00,,,0.00,Wunderground v.1.15,2013-06-01 10:38:00,
2013-06-01 06:43:00,68.4,66.3,29.90,South,188,0.0,2.0,93,0.00,,,0.00,Wunderground v.1.15,2013-06-01 10:43:00,
2013-06-01 06:48:00,69.3,66.6,29.90,South,187,1.0,4.0,91,0.00,,,0.00,Wunderground v.1.15,2013-06-01 10:48:00,
2013-06-01 06:53:00,69.9,65.9,29.90,South,187,0.0,4.0,87,0.00,,,0.00,Wunderground v.1.15,2013-06-01 10:53:00,
2013-06-01 06:58:00,70.6,65.9,29.90,South,186,0.0,6.0,85,0.00,,,0.00,Wunderground v.1.15,2013-06-01 10:58:00,
2013-06-01 07:03:00,71.1,66.0,29.90,South,186,0.0,4.0,84,0.00,,,0.00,Wunderground v.1.15,2013-06-01 11:03:00,
2013-06-01 07:08:00,71.5,66.1,29.90,South,186,0.0,4.0,83,0.00,,,0.00,Wunderground v.1.15,2013-06-01 11:08:00,
2013-06-01 07:13:00,71.8,66.4,29.90,South,186,0.0,1.0,83,0.00,,,0.00,Wunderground v.1.15,2013-06-01 11:13:00,
2013-06-01 07:18:00,71.8,66.4,29.90,South,186,1.0,3.0,83,0.00,,,0.00,Wunderground v.1.15,2013-06-01 11:18:00,
2013-06-01 07:23:00,71.6,66.2,29.90,South,186,0.0,1.0,83,0.00,,,0.00,Wunderground v.1.15,2013-06-01 11:23:00,
2013-06-01 07:28:00,71.6,66.8,29.90,South,186,0.0,1.0,85,0.00,,,0.00,Wunderground v.1.15,2013-06-01 11:28:00,
2013-06-01 07:33:00,71.8,67.0,29.90,South,186,0.0,1.0,85,0.00,,,0.00,Wunderground v.1.15,2013-06-01 11:33:00,
2013-06-01 07:38:00,72.3,67.5,29.90,South,186,0.0,2.0,85,0.00,,,0.00,Wunderground v.1.15,2013-06-01 11:38:00,
2013-06-01 07:43:00,72.8,67.0,29.90,South,186,1.0,2.0,82,0.00,,,0.00,Wunderground v.1.15,2013-06-01 11:43:00,
2013-06-01 07:48:00,73.5,67.3,29.90,South,186,0.0,2.0,81,0.00,,,0.00,Wunderground v.1.15,2013-06-01 11:48:00,
2013-06-01 07:53:00,74.2,66.9,29.90,South,186,0.0,4.0,78,0.00,,,0.00,Wunderground v.1.15,2013-06-01 11:53:00,
2013-06-01 07:58:00,74.7,66.6,29.91,South,186,0.0,4.0,76,0.00,,,0.00,Wunderground v.1.15,2013-06-01 11:58:00,
2013-06-01 08:03:00,75.1,66.6,29.91,South,173,3.0,6.0,75,0.00,,,0.00,Wunderground v.1.15,2013-06-01 12:03:00,
2013-06-01 08:08:00,75.4,66.5,29.91,South,173,0.0,6.0,74,0.00,,,0.00,Wunderground v.1.15,2013-06-01 12:08:00,
2013-06-01 08:13:00,75.4,66.1,29.91,South,175,0.0,6.0,73,0.00,,,0.00,Wunderground v.1.15,2013-06-01 12:13:00,
2013-06-01 08:18:00,75.6,65.9,29.91,South,185,0.0,7.0,72,0.00,,,0.00,Wunderground v.1.15,2013-06-01 12:18:00,
2013-06-01 08:23:00,76.0,65.9,29.91,South,169,0.0,9.0,71,0.00,,,0.00,Wunderground v.1.15,2013-06-01 12:23:00,
2013-06-01 08:28:00,76.5,66.0,29.91,South,170,1.0,9.0,70,0.00,,,0.00,Wunderground v.1.15,2013-06-01 12:28:00,
2013-06-01 08:33:00,76.8,65.9,29.91,South,171,1.0,2.0,69,0.00,,,0.00,Wunderground v.1.15,2013-06-01 12:33:00,
2013-06-01 08:39:00,77.2,65.8,29.91,South,171,0.0,4.0,68,0.00,,,0.00,Wunderground v.1.15,2013-06-01 12:39:00,
2013-06-01 08:44:00,77.7,66.7,29.91,South,171,4.0,6.0,69,0.00,,,0.00,Wunderground v.1.15,2013-06-01 12:44:00,
2013-06-01 08:49:00,77.7,65.4,29.91,South,180,3.0,6.0,66,0.00,,,0.00,Wunderground v.1.15,2013-06-01 12:49:00,
2013-06-01 08:54:00,77.9,65.6,29.91,SSW,207,2.0,6.0,66,0.00,,,0.00,Wunderground v.1.15,2013-06-01 12:54:00,
2013-06-01 08:58:00,78.1,66.2,29.91,SSW,209,4.0,6.0,67,0.00,,,0.00,Wunderground v.1.15,2013-06-01 12:58:00,
2013-06-01 09:03:00,78.1,64.9,29.91,South,174,2.0,11.0,64,0.00,,,0.00,Wunderground v.1.15,2013-06-01 13:03:00,
2013-06-01 09:09:00,78.3,66.0,29.91,SSW,194,2.0,11.0,66,0.00,,,0.00,Wunderground v.1.15,2013-06-01 13:09:00,
2013-06-01 09:14:00,78.5,66.2,29.90,SSW,213,0.0,6.0,66,0.00,,,0.00,Wunderground v.1.15,2013-06-01 13:14:00,
2013-06-01 09:19:00,78.6,65.8,29.90,South,185,0.0,10.0,65,0.00,,,0.00,Wunderground v.1.15,2013-06-01 13:19:00,
2013-06-01 09:24:00,79.0,66.7,29.90,SSW,195,0.0,7.0,66,0.00,,,0.00,Wunderground v.1.15,2013-06-01 13:24:00,
2013-06-01 09:29:00,79.2,66.0,29.89,SSE,148,11.0,11.0,64,0.00,,,0.00,Wunderground v.1.15,2013-06-01 13:29:00,
2013-06-01 09:34:00,79.2,66.0,29.89,South,188,7.0,10.0,64,0.00,,,0.00,Wunderground v.1.15,2013-06-01 13:34:00,
2013-06-01 09:39:00,79.2,65.5,29.89,SSW,202,6.0,15.0,63,0.00,,,0.00,Wunderground v.1.15,2013-06-01 13:39:00,
2013-06-01 09:44:00,79.4,66.2,29.88,SSW,192,4.0,12.0,64,0.00,,,0.00,Wunderground v.1.15,2013-06-01 13:44:00,
2013-06-01 09:49:00,79.6,65.0,29.88,South,186,0.0,14.0,61,0.00,,,0.00,Wunderground v.1.15,2013-06-01 13:49:00,
2013-06-01 09:54:00,79.6,65.9,29.88,South,187,6.0,13.0,63,0.00,,,0.00,Wunderground v.1.15,2013-06-01 13:54:00,
2013-06-01 09:59:00,79.9,66.6,29.88,SSW,199,11.0,13.0,64,0.00,,,0.00,Wunderground v.1.15,2013-06-01 13:59:00,
2013-06-01 10:04:00,80.3,67.0,29.88,SSE,159,1.0,12.0,64,0.00,,,0.00,Wunderground v.1.15,2013-06-01 14:04:00,
2013-06-01 10:09:00,80.3,66.6,29.88,South,176,3.0,12.0,63,0.00,,,0.00,Wunderground v.1.15,2013-06-01 14:09:00,
2013-06-01 10:14:00,80.5,66.7,29.87,SE,140,0.0,11.0,63,0.00,,,0.00,Wunderground v.1.15,2013-06-01 14:14:00,
2013-06-01 10:19:00,81.4,68.1,29.87,SE,145,0.0,11.0,64,0.00,,,0.00,Wunderground v.1.15,2013-06-01 14:19:00,
2013-06-01 10:24:00,81.8,66.1,29.87,South,175,0.0,10.0,59,0.00,,,0.00,Wunderground v.1.15,2013-06-01 14:24:00,
2013-06-01 10:29:00,81.8,67.5,29.87,South,178,2.0,10.0,62,0.00,,,0.00,Wunderground v.1.15,2013-06-01 14:29:00,
2013-06-01 10:34:00,81.8,67.0,29.87,SSW,202,4.0,11.0,61,0.00,,,0.00,Wunderground v.1.15,2013-06-01 14:34:00,
2013-06-01 10:39:00,81.8,67.5,29.87,SSW,198,0.0,11.0,62,0.00,,,0.00,Wunderground v.1.15,2013-06-01 14:39:00,
2013-06-01 10:44:00,82.0,66.7,29.86,SSW,212,4.0,9.0,60,0.00,,,0.00,Wunderground v.1.15,2013-06-01 14:44:00,
2013-06-01 10:49:00,82.2,67.9,29.86,SE,140,7.0,12.0,62,0.00,,,0.00,Wunderground v.1.15,2013-06-01 14:49:00,
2013-06-01 10:54:00,82.2,66.4,29.86,SSW,197,5.0,10.0,59,0.00,,,0.00,Wunderground v.1.15,2013-06-01 14:54:00,
2013-06-01 10:59:00,82.2,67.4,29.86,South,187,4.0,11.0,61,0.00,,,0.00,Wunderground v.1.15,2013-06-01 14:59:00,
2013-06-01 11:04:00,82.0,66.7,29.86,South,184,7.0,12.0,60,0.00,,,0.00,Wunderground v.1.15,2013-06-01 15:04:00,
2013-06-01 11:09:00,82.4,67.6,29.86,South,183,3.0,12.0,61,0.00,,,0.00,Wunderground v.1.15,2013-06-01 15:09:00,
2013-06-01 11:14:00,82.4,67.1,29.86,SSW,200,6.0,11.0,60,0.00,,,0.00,Wunderground v.1.15,2013-06-01 15:14:00,
2013-06-01 11:19:00,82.4,67.1,29.86,SSW,198,3.0,14.0,60,0.00,,,0.00,Wunderground v.1.15,2013-06-01 15:19:00,
2013-06-01 11:24:00,82.8,66.5,29.86,SSW,205,6.0,13.0,58,0.00,,,0.00,Wunderground v.1.15,2013-06-01 15:24:00,
2013-06-01 11:29:00,83.0,67.7,29.85,SSW,197,5.0,13.0,60,0.00,,,0.00,Wunderground v.1.15,2013-06-01 15:29:00,
2013-06-01 11:34:00,82.8,66.5,29.85,SSW,200,5.0,17.0,58,0.00,,,0.00,Wunderground v.1.15,2013-06-01 15:34:00,
2013-06-01 11:40:00,83.0,67.2,29.85,SSW,206,18.0,18.0,59,0.00,,,0.00,Wunderground v.1.15,2013-06-01 15:40:00,
2013-06-01 11:45:00,83.0,67.2,29.85,South,190,6.0,18.0,59,0.00,,,0.00,Wunderground v.1.15,2013-06-01 15:45:00,
2013-06-01 11:50:00,83.4,67.1,29.85,South,175,6.0,10.0,58,0.00,,,0.00,Wunderground v.1.15,2013-06-01 15:50:00,
2013-06-01 11:55:00,83.8,66.4,29.85,SSE,166,6.0,12.0,56,0.00,,,0.00,Wunderground v.1.15,2013-06-01 15:55:00,
2013-06-01 12:00:00,84.0,67.1,29.84,South,173,9.0,10.0,57,0.00,,,0.00,Wunderground v.1.15,2013-06-01 16:00:00,
2013-06-01 12:05:00,84.1,67.2,29.84,SSW,203,5.0,13.0,57,0.00,,,0.00,Wunderground v.1.15,2013-06-01 16:05:00,
2013-06-01 12:10:00,84.3,66.9,29.84,South,190,3.0,6.0,56,0.00,,,0.00,Wunderground v.1.15,2013-06-01 16:10:00,
2013-06-01 12:15:00,84.3,66.9,29.84,South,171,4.0,16.0,56,0.00,,,0.00,Wunderground v.1.15,2013-06-01 16:15:00,
2013-06-01 12:20:00,84.5,67.1,29.84,South,176,4.0,6.0,56,0.00,,,0.00,Wunderground v.1.15,2013-06-01 16:20:00,
2013-06-01 12:25:00,84.7,67.3,29.84,SSE,163,3.0,11.0,56,0.00,,,0.00,Wunderground v.1.15,2013-06-01 16:25:00,
2013-06-01 12:30:00,84.7,67.8,29.83,South,171,11.0,14.0,57,0.00,,,0.00,Wunderground v.1.15,2013-06-01 16:30:00,
2013-06-01 12:35:00,84.9,67.5,29.83,SSE,167,6.0,14.0,56,0.00,,,0.00,Wunderground v.1.15,2013-06-01 16:35:00,
2013-06-01 12:40:00,85.3,68.3,29.83,South,184,11.0,11.0,57,0.00,,,0.00,Wunderground v.1.15,2013-06-01 16:40:00,
2013-06-01 12:45:00,85.5,66.4,29.83,South,171,8.0,15.0,53,0.00,,,0.00,Wunderground v.1.15,2013-06-01 16:45:00,
2013-06-01 12:50:00,85.5,66.4,29.83,South,173,6.0,7.0,53,0.00,,,0.00,Wunderground v.1.15,2013-06-01 16:50:00,
2013-06-01 12:55:00,86.3,70.3,29.83,South,189,7.0,13.0,59,0.00,,,0.00,Wunderground v.1.15,2013-06-01 16:55:00,
2013-06-01 13:00:00,86.3,67.2,29.82,SSE,164,13.0,16.0,53,0.00,,,0.00,Wunderground v.1.15,2013-06-01 17:00:00,
2013-06-01 13:05:00,86.3,68.8,29.82,SE,146,12.0,16.0,56,0.00,,,0.00,Wunderground v.1.15,2013-06-01 17:05:00,
2013-06-01 13:10:00,86.1,67.5,29.82,SSW,198,1.0,6.0,54,0.00,,,0.00,Wunderground v.1.15,2013-06-01 17:10:00,
2013-06-01 13:15:00,86.3,66.6,29.81,South,191,5.0,13.0,52,0.00,,,0.00,Wunderground v.1.15,2013-06-01 17:15:00,
2013-06-01 13:20:00,86.3,65.5,29.81,SSE,165,5.0,11.0,50,0.00,,,0.00,Wunderground v.1.15,2013-06-01 17:20:00,
2013-06-01 13:25:00,85.9,65.1,29.81,South,178,4.0,16.0,50,0.00,,,0.00,Wunderground v.1.15,2013-06-01 17:25:00,
2013-06-01 13:30:00,86.3,67.2,29.80,South,171,3.0,7.0,53,0.00,,,0.00,Wunderground v.1.15,2013-06-01 17:30:00,
2013-06-01 13:35:00,86.3,67.2,29.80,SSW,200,6.0,12.0,53,0.00,,,0.00,Wunderground v.1.15,2013-06-01 17:35:00,
2013-06-01 13:40:00,86.5,66.8,29.80,SSW,202,7.0,8.0,52,0.00,,,0.00,Wunderground v.1.15,2013-06-01 17:40:00,
2013-06-01 13:45:00,87.0,67.8,29.80,SSW,202,6.0,18.0,53,0.00,,,0.00,Wunderground v.1.15,2013-06-01 17:45:00,
2013-06-01 13:50:00,86.5,66.8,29.80,South,169,10.0,20.0,52,0.00,,,0.00,Wunderground v.1.15,2013-06-01 17:50:00,
2013-06-01 13:55:00,85.5,65.9,29.80,South,178,6.0,20.0,52,0.00,,,0.00,Wunderground v.1.15,2013-06-01 17:55:00,
2013-06-01 14:00:00,85.1,66.0,29.80,South,174,10.0,11.0,53,0.00,,,0.00,Wunderground v.1.15,2013-06-01 18:00:00,
2013-06-01 14:05:00,84.9,66.4,29.80,South,175,4.0,17.0,54,0.00,,,0.00,Wunderground v.1.15,2013-06-01 18:05:00,
2013-06-01 14:10:00,84.9,66.9,29.80,South,170,0.0,6.0,55,0.00,,,0.00,Wunderground v.1.15,2013-06-01 18:10:00,
2013-06-01 14:15:00,84.9,66.9,29.80,South,190,9.0,13.0,55,0.00,,,0.00,Wunderground v.1.15,2013-06-01 18:15:00,
2013-06-01 14:20:00,84.7,67.3,29.80,SSE,161,7.0,16.0,56,0.00,,,0.00,Wunderground v.1.15,2013-06-01 18:20:00,
2013-06-01 14:25:00,84.1,68.2,29.80,South,180,5.0,17.0,59,0.00,,,0.00,Wunderground v.1.15,2013-06-01 18:25:00,
2013-06-01 14:30:00,84.1,68.2,29.80,SSW,197,4.0,13.0,59,0.00,,,0.00,Wunderground v.1.15,2013-06-01 18:30:00,
2013-06-01 14:36:00,84.3,69.9,29.80,SW,230,5.0,13.0,62,0.00,,,0.00,Wunderground v.1.15,2013-06-01 18:36:00,
2013-06-01 14:41:00,84.7,69.3,29.80,SSW,211,3.0,13.0,60,0.00,,,0.00,Wunderground v.1.15,2013-06-01 18:41:00,
2013-06-01 14:46:00,85.3,64.6,29.80,SW,226,1.0,20.0,50,0.00,,,0.00,Wunderground v.1.15,2013-06-01 18:46:00,
2013-06-01 14:51:00,85.7,63.8,29.80,WSW,251,18.0,18.0,48,0.00,,,0.00,Wunderground v.1.15,2013-06-01 18:51:00,
2013-06-01 14:56:00,85.5,64.7,29.80,SW,214,12.0,18.0,50,0.00,,,0.00,Wunderground v.1.15,2013-06-01 18:56:00,
2013-06-01 15:01:00,84.7,65.1,29.80,South,182,6.0,9.0,52,0.00,,,0.00,Wunderground v.1.15,2013-06-01 19:01:00,
2013-06-01 15:06:00,84.3,64.2,29.80,SSW,200,4.0,13.0,51,0.00,,,0.00,Wunderground v.1.15,2013-06-01 19:06:00,
2013-06-01 15:11:00,84.3,65.3,29.80,SSW,207,3.0,7.0,53,0.00,,,0.00,Wunderground v.1.15,2013-06-01 19:11:00,
2013-06-01 15:16:00,84.9,65.3,29.80,SW,216,0.0,13.0,52,0.00,,,0.00,Wunderground v.1.15,2013-06-01 19:16:00,
2013-06-01 15:21:00,85.5,65.9,29.80,South,178,5.0,5.0,52,0.00,,,0.00,Wunderground v.1.15,2013-06-01 19:21:00,
2013-06-01 15:26:00,85.7,66.0,29.80,SSE,165,7.0,11.0,52,0.00,,,0.00,Wunderground v.1.15,2013-06-01 19:26:00,
2013-06-01 15:31:00,85.7,65.5,29.80,South,183,3.0,5.0,51,0.00,,,0.00,Wunderground v.1.15,2013-06-01 19:31:00,
2013-06-01 15:36:00,85.3,65.7,29.80,SW,225,1.0,9.0,52,0.00,,,0.00,Wunderground v.1.15,2013-06-01 19:36:00,
2013-06-01 15:41:00,84.7,65.7,29.80,South,169,9.0,11.0,53,0.00,,,0.00,Wunderground v.1.15,2013-06-01 19:41:00,
2013-06-01 15:46:00,84.1,65.7,29.80,South,180,6.0,18.0,54,0.00,,,0.00,Wunderground v.1.15,2013-06-01 19:46:00,
2013-06-01 15:51:00,84.0,66.1,29.80,SSE,167,9.0,12.0,55,0.00,,,0.00,Wunderground v.1.15,2013-06-01 19:51:00,
2013-06-01 15:56:00,83.4,65.5,29.80,South,173,12.0,14.0,55,0.00,,,0.00,Wunderground v.1.15,2013-06-01 19:56:00,
2013-06-01 16:01:00,83.2,65.4,29.80,South,177,3.0,7.0,55,0.00,,,0.00,Wunderground v.1.15,2013-06-01 20:01:00,
2013-06-01 16:06:00,83.2,66.4,29.80,South,169,4.0,9.0,57,0.00,,,0.00,Wunderground v.1.15,2013-06-01 20:06:00,
2013-06-01 16:11:00,83.2,65.9,29.80,South,175,4.0,8.0,56,0.00,,,0.00,Wunderground v.1.15,2013-06-01 20:11:00,
2013-06-01 16:16:00,83.2,66.4,29.80,SSE,163,11.0,14.0,57,0.00,,,0.00,Wunderground v.1.15,2013-06-01 20:16:00,
2013-06-01 16:21:00,83.2,66.4,29.80,SSE,157,0.0,11.0,57,0.00,,,0.00,Wunderground v.1.15,2013-06-01 20:21:00,
2013-06-01 16:26:00,83.2,66.4,29.80,South,184,4.0,11.0,57,0.00,,,0.00,Wunderground v.1.15,2013-06-01 20:26:00,
2013-06-01 16:31:00,83.0,67.2,29.79,South,182,5.0,12.0,59,0.00,,,0.00,Wunderground v.1.15,2013-06-01 20:31:00,
2013-06-01 16:36:00,82.2,67.4,29.79,South,173,6.0,12.0,61,0.00,,,0.00,Wunderground v.1.15,2013-06-01 20:36:00,
2013-06-01 16:41:00,82.0,67.7,29.79,SSE,167,7.0,9.0,62,0.00,,,0.00,Wunderground v.1.15,2013-06-01 20:41:00,
2013-06-01 16:46:00,81.8,67.5,29.79,South,175,5.0,10.0,62,0.00,,,0.00,Wunderground v.1.15,2013-06-01 20:46:00,
2013-06-01 16:51:00,82.0,69.1,29.79,South,174,9.0,10.0,65,0.00,,,0.00,Wunderground v.1.15,2013-06-01 20:51:00,
2013-06-01 16:56:00,81.8,69.3,29.79,SSE,153,11.0,12.0,66,0.00,,,0.00,Wunderground v.1.15,2013-06-01 20:56:00,
2013-06-01 17:01:00,82.0,69.5,29.78,South,187,0.0,9.0,66,0.00,,,0.00,Wunderground v.1.15,2013-06-01 21:01:00,
2013-06-01 17:06:00,82.2,69.7,29.78,SSE,161,2.0,10.0,66,0.00,,,0.00,Wunderground v.1.15,2013-06-01 21:06:00,
2013-06-01 17:11:00,82.6,70.5,29.78,SSE,166,6.0,9.0,67,0.00,,,0.00,Wunderground v.1.15,2013-06-01 21:11:00,
2013-06-01 17:16:00,82.6,69.6,29.78,SE,146,4.0,14.0,65,0.00,,,0.00,Wunderground v.1.15,2013-06-01 21:16:00,
2013-06-01 17:21:00,82.6,69.2,29.78,SSE,158,11.0,16.0,64,0.00,,,0.00,Wunderground v.1.15,2013-06-01 21:21:00,
2013-06-01 17:26:00,82.6,69.2,29.78,SSE,163,6.0,16.0,64,0.00,,,0.00,Wunderground v.1.15,2013-06-01 21:26:00,
2013-06-01 17:31:00,82.4,68.5,29.78,South,169,11.0,11.0,63,0.00,,,0.00,Wunderground v.1.15,2013-06-01 21:31:00,
2013-06-01 17:36:00,82.2,68.8,29.78,ESE,117,4.0,12.0,64,0.00,,,0.00,Wunderground v.1.15,2013-06-01 21:36:00,
2013-06-01 17:42:00,82.4,68.5,29.78,SSE,154,6.0,14.0,63,0.00,,,0.00,Wunderground v.1.15,2013-06-01 21:42:00,
2013-06-01 17:47:00,82.6,69.2,29.78,South,169,7.0,14.0,64,0.00,,,0.00,Wunderground v.1.15,2013-06-01 21:47:00,
2013-06-01 17:52:00,82.8,68.9,29.78,SSE,159,10.0,10.0,63,0.00,,,0.00,Wunderground v.1.15,2013-06-01 21:52:00,
2013-06-01 17:57:00,82.8,69.4,29.77,SSE,153,3.0,10.0,64,0.00,,,0.00,Wunderground v.1.15,2013-06-01 21:57:00,
2013-06-01 18:02:00,83.0,69.1,29.77,South,171,0.0,9.0,63,0.00,,,0.00,Wunderground v.1.15,2013-06-01 22:02:00,
2013-06-01 18:07:00,83.2,68.3,29.77,South,189,4.0,9.0,61,0.00,,,0.00,Wunderground v.1.15,2013-06-01 22:07:00,
2013-06-01 18:12:00,83.2,68.3,29.77,South,185,2.0,5.0,61,0.00,,,0.00,Wunderground v.1.15,2013-06-01 22:12:00,
2013-06-01 18:17:00,83.2,69.3,29.77,South,185,0.0,5.0,63,0.00,,,0.00,Wunderground v.1.15,2013-06-01 22:17:00,
2013-06-01 18:22:00,83.0,69.6,29.77,South,185,0.0,1.0,64,0.00,,,0.00,Wunderground v.1.15,2013-06-01 22:22:00,
2013-06-01 18:27:00,82.8,68.9,29.77,South,182,4.0,6.0,63,0.00,,,0.00,Wunderground v.1.15,2013-06-01 22:27:00,
2013-06-01 18:32:00,82.8,68.4,29.77,South,182,1.0,3.0,62,0.00,,,0.00,Wunderground v.1.15,2013-06-01 22:32:00,
2013-06-01 18:37:00,82.6,68.7,29.77,South,182,0.0,3.0,63,0.00,,,0.00,Wunderground v.1.15,2013-06-01 22:37:00,
2013-06-01 18:42:00,82.4,69.0,29.77,SSE,159,3.0,6.0,64,0.00,,,0.00,Wunderground v.1.15,2013-06-01 22:42:00,
2013-06-01 18:47:00,82.0,69.5,29.77,SSE,159,2.0,6.0,66,0.00,,,0.00,Wunderground v.1.15,2013-06-01 22:47:00,
2013-06-01 18:52:00,81.8,69.3,29.77,SSE,159,0.0,3.0,66,0.00,,,0.00,Wunderground v.1.15,2013-06-01 22:52:00,
2013-06-01 18:57:00,81.6,69.6,29.76,SSE,159,1.0,3.0,67,0.00,,,0.00,Wunderground v.1.15,2013-06-01 22:57:00,
2013-06-01 19:02:00,81.4,69.4,29.76,SSE,159,0.0,3.0,67,0.00,,,0.00,Wunderground v.1.15,2013-06-01 23:02:00,
2013-06-01 19:07:00,81.4,69.4,29.76,SSE,159,0.0,3.0,67,0.00,,,0.00,Wunderground v.1.15,2013-06-01 23:07:00,
2013-06-01 19:12:00,81.1,69.1,29.76,SSE,159,0.0,1.0,67,0.00,,,0.00,Wunderground v.1.15,2013-06-01 23:12:00,
2013-06-01 19:17:00,80.9,69.3,29.76,SSE,159,0.0,1.0,68,0.00,,,0.00,Wunderground v.1.15,2013-06-01 23:17:00,
2013-06-01 19:22:00,80.5,69.4,29.76,SSE,159,0.0,0.0,69,0.00,,,0.00,Wunderground v.1.15,2013-06-01 23:22:00,
2013-06-01 19:27:00,80.3,69.6,29.77,SSE,159,0.0,1.0,70,0.00,,,0.00,Wunderground v.1.15,2013-06-01 23:27:00,
2013-06-01 19:32:00,80.1,69.8,29.77,SSE,159,0.0,4.0,71,0.00,,,0.00,Wunderground v.1.15,2013-06-01 23:32:00,
2013-06-01 19:37:00,80.1,69.4,29.77,South,169,1.0,9.0,70,0.00,,,0.00,Wunderground v.1.15,2013-06-01 23:37:00,
2013-06-01 19:42:00,80.1,69.4,29.77,South,169,1.0,4.0,70,0.00,,,0.00,Wunderground v.1.15,2013-06-01 23:42:00,
2013-06-01 19:47:00,80.1,69.4,29.77,South,170,3.0,6.0,70,0.00,,,0.00,Wunderground v.1.15,2013-06-01 23:47:00,
2013-06-01 19:52:00,80.1,69.0,29.77,South,170,0.0,4.0,69,0.00,,,0.00,Wunderground v.1.15,2013-06-01 23:52:00,
2013-06-01 19:57:00,79.9,68.8,29.77,South,170,3.0,5.0,69,0.00,,,0.00,Wunderground v.1.15,2013-06-01 23:57:00,
2013-06-01 20:02:00,79.9,68.8,29.77,South,170,2.0,4.0,69,0.00,,,0.00,Wunderground v.1.15,2013-06-02 00:02:00,
2013-06-01 20:07:00,79.8,68.7,29.77,South,170,0.0,4.0,69,0.00,,,0.00,Wunderground v.1.15,2013-06-02 00:07:00,
2013-06-01 20:12:00,79.8,68.3,29.76,South,170,2.0,5.0,68,0.00,,,0.00,Wunderground v.1.15,2013-06-02 00:12:00,
2013-06-01 20:17:00,79.8,67.4,29.76,South,170,2.0,6.0,66,0.00,,,0.00,Wunderground v.1.15,2013-06-02 00:17:00,
2013-06-01 20:22:00,79.8,67.4,29.76,South,170,0.0,3.0,66,0.00,,,0.00,Wunderground v.1.15,2013-06-02 00:22:00,
2013-06-01 20:27:00,79.6,67.2,29.76,South,170,0.0,3.0,66,0.00,,,0.00,Wunderground v.1.15,2013-06-02 00:27:00,
2013-06-01 20:32:00,79.2,66.9,29.76,South,170,0.0,3.0,66,0.00,,,0.00,Wunderground v.1.15,2013-06-02 00:32:00,
2013-06-01 20:37:00,79.2,66.9,29.76,South,170,0.0,5.0,66,0.00,,,0.00,Wunderground v.1.15,2013-06-02 00:37:00,
2013-06-01 20:42:00,78.8,67.3,29.75,South,170,4.0,4.0,68,0.00,,,0.00,Wunderground v.1.15,2013-06-02 00:42:00,
2013-06-01 20:47:00,78.3,66.9,29.75,South,170,2.0,5.0,68,0.00,,,0.00,Wunderground v.1.15,2013-06-02 00:47:00,
2013-06-01 20:53:00,77.9,66.5,29.75,South,170,0.0,3.0,68,0.00,,,0.00,Wunderground v.1.15,2013-06-02 00:53:00,
2013-06-01 20:58:00,77.7,65.4,29.76,South,170,0.0,3.0,66,0.00,,,0.00,Wunderground v.1.15,2013-06-02 00:58:00,
2013-06-01 21:03:00,77.7,65.4,29.76,South,170,0.0,1.0,66,0.00,,,0.00,Wunderground v.1.15,2013-06-02 01:03:00,
2013-06-01 21:08:00,77.7,65.4,29.76,South,170,0.0,1.0,66,0.00,,,0.00,Wunderground v.1.15,2013-06-02 01:08:00,
2013-06-01 21:13:00,77.6,64.9,29.76,South,170,0.0,3.0,65,0.00,,,0.00,Wunderground v.1.15,2013-06-02 01:13:00,
2013-06-01 21:18:00,77.4,65.1,29.76,South,170,0.0,3.0,66,0.00,,,0.00,Wunderground v.1.15,2013-06-02 01:18:00,
2013-06-01 21:22:00,77.2,65.0,29.76,South,170,0.0,0.0,66,0.00,,,0.00,Wunderground v.1.15,2013-06-02 01:22:00,
2013-06-01 21:27:00,76.8,65.0,29.78,South,170,0.0,0.0,67,0.00,,,0.00,Wunderground v.1.15,2013-06-02 01:27:00,
2013-06-01 21:33:00,76.5,65.1,29.78,South,170,2.0,3.0,68,0.00,,,0.00,Wunderground v.1.15,2013-06-02 01:33:00,
2013-06-01 21:38:00,76.8,65.0,29.78,South,170,1.0,5.0,67,0.00,,,0.00,Wunderground v.1.15,2013-06-02 01:38:00,
2013-06-01 21:43:00,76.8,65.4,29.77,South,170,0.0,2.0,68,0.00,,,0.00,Wunderground v.1.15,2013-06-02 01:43:00,
2013-06-01 21:48:00,76.7,65.3,29.77,West,271,7.0,7.0,68,0.00,,,0.00,Wunderground v.1.15,2013-06-02 01:48:00,
2013-06-01 21:53:00,76.5,66.4,29.77,NNW,327,0.0,15.0,71,0.00,,,0.00,Wunderground v.1.15,2013-06-02 01:53:00,
2013-06-01 21:58:00,76.1,66.4,29.79,NNW,327,0.0,15.0,72,0.00,,,0.00,Wunderground v.1.15,2013-06-02 01:58:00,
2013-06-01 22:03:00,75.8,66.5,29.79,NNW,327,0.0,3.0,73,0.00,,,0.00,Wunderground v.1.15,2013-06-02 02:03:00,
2013-06-01 22:08:00,75.4,66.1,29.79,NNW,329,0.0,5.0,73,0.00,,,0.00,Wunderground v.1.15,2013-06-02 02:08:00,
2013-06-01 22:13:00,75.4,66.1,29.79,NNW,329,0.0,1.0,73,0.00,,,0.00,Wunderground v.1.15,2013-06-02 02:13:00,
2013-06-01 22:18:00,75.1,66.6,29.79,NNW,336,2.0,5.0,75,0.00,,,0.00,Wunderground v.1.15,2013-06-02 02:18:00,
2013-06-01 22:23:00,74.6,66.5,29.79,North,351,1.0,3.0,76,0.00,,,0.00,Wunderground v.1.15,2013-06-02 02:23:00,
2013-06-01 22:28:00,74.6,66.9,29.80,North,355,0.0,3.0,77,0.00,,,0.00,Wunderground v.1.15,2013-06-02 02:28:00,
2013-06-01 22:33:00,74.9,66.8,29.80,North,5,1.0,4.0,76,0.00,,,0.00,Wunderground v.1.15,2013-06-02 02:33:00,
2013-06-01 22:38:00,75.1,66.6,29.80,North,5,0.0,4.0,75,0.00,,,0.00,Wunderground v.1.15,2013-06-02 02:38:00,
2013-06-01 22:43:00,75.1,66.6,29.80,North,5,2.0,2.0,75,0.00,,,0.00,Wunderground v.1.15,2013-06-02 02:43:00,
2013-06-01 22:48:00,74.9,66.8,29.80,North,5,0.0,4.0,76,0.00,,,0.00,Wunderground v.1.15,2013-06-02 02:48:00,
2013-06-01 22:53:00,74.7,67.0,29.80,North,5,0.0,0.0,77,0.00,,,0.00,Wunderground v.1.15,2013-06-02 02:53:00,
2013-06-01 22:58:00,74.4,66.0,29.80,North,11,4.0,4.0,75,0.00,,,0.00,Wunderground v.1.15,2013-06-02 02:58:00,
2013-06-01 23:04:00,74.4,65.6,29.80,NE,34,3.0,3.0,74,0.00,,,0.00,Wunderground v.1.15,2013-06-02 03:04:00,
2013-06-01 23:09:00,74.6,65.4,29.80,NE,42,1.0,4.0,73,0.00,,,0.00,Wunderground v.1.15,2013-06-02 03:09:00,
2013-06-01 23:14:00,74.6,65.0,29.80,NE,42,0.0,1.0,72,0.00,,,0.00,Wunderground v.1.15,2013-06-02 03:14:00,
2013-06-01 23:19:00,74.6,65.4,29.80,NE,42,0.0,3.0,73,0.85,,,0.05,Wunderground v.1.15,2013-06-02 03:19:00,
2013-06-01 23:24:00,74.2,66.5,29.80,NE,42,0.0,0.0,77,0.11,,,0.05,Wunderground v.1.15,2013-06-02 03:24:00,
2013-06-01 23:29:00,73.0,66.8,29.83,NE,42,0.0,1.0,81,0.06,,,0.05,Wunderground v.1.15,2013-06-02 03:29:00,
2013-06-01 23:34:00,72.0,66.9,29.83,NE,44,0.0,3.0,84,0.04,,,0.05,Wunderground v.1.15,2013-06-02 03:34:00,
2013-06-01 23:39:00,71.5,66.8,29.83,NE,51,2.0,4.0,85,0.00,,,0.05,Wunderground v.1.15,2013-06-02 03:39:00,
2013-06-01 23:44:00,70.9,66.8,29.81,ENE,61,1.0,6.0,87,0.00,,,0.06,Wunderground v.1.15,2013-06-02 03:44:00,
2013-06-01 23:49:00,70.8,66.7,29.81,ENE,78,6.0,7.0,87,0.00,,,0.06,Wunderground v.1.15,2013-06-02 03:49:00,
2013-06-01 23:54:00,70.6,66.5,29.81,East,82,2.0,6.0,87,0.00,,,0.06,Wunderground v.1.15,2013-06-02 03:54:00,
2013-06-01 23:59:00,70.6,66.9,29.79,East,80,0.0,6.0,88,0.00,,,0.06,Wunderground v.1.15,2013-06-02 03:59:00,